Terminal Aerodrome Forecast
Issued by NWS

Home | Current Version | Previous Version | Text Only | Print | Product List | Glossary On
Versions: 1 2 3 4 5 6 7 8 9 10 11 12 13 14 15 16
000
FTUS43 KABR 062300
TAFATY
TAF
KATY 062336Z 0700/0724 22007KT P6SM BKN100
     FM070600 30017KT P6SM SCT100
     FM071300 33017G25KT P6SM OVC015
     FM072000 29010KT P6SM SCT035=

USA.gov is the U.S. government's official web portal to all federal, state and local government web resources and services.